ADDS METAR Data INFO
IDs: Format: Raw Decoded Include TAF

Data at: 2238 UTC 11 Dec 2017

KVAY 112154Z AUTO 00000KT 10SM CLR 02/M04 A3002 RMK AO2 SLP165 T00221044 $
KVAY 112054Z AUTO 30004KT 10SM CLR 04/M05 A3000 RMK AO2 SLP160 T00441050 55004 $
KVAY 111954Z AUTO 27008KT 10SM CLR 04/M06 A3000 RMK AO2 SLP158 T00441061 $
KVAY 111854Z AUTO VRB05KT 10SM CLR 06/M06 A3002 RMK AO2 SLP165 T00561056 $
KVAY 111754Z AUTO VRB06KT 10SM CLR 05/M06 A3001 RMK AO2 SLP164 T00501056 10050 21006 58017 $
KVAY 111654Z AUTO 32005KT 10SM BKN047 04/M05 A3004 RMK AO2 SLP173 T00441050 $
KVAY 111554Z AUTO 29008KT CLR 04/M05 A3008 RMK AO2 SLP185 T00441050 $
KVAY 111454Z AUTO VRB03KT CLR 03/M02 A3006 RMK AO2 SLP180 T00331022 50007 $
KVAY 111354Z AUTO 00000KT 10SM BKN055 00/M01 A3007 RMK AO2 SLP182 T00001011
KVAY 111254Z AUTO 00000KT 8SM OVC060 M01/M01 A3005 RMK AO2 SLP177 T10061011 $
KVAY 111154Z AUTO 00000KT OVC055 M01/M01 A3004 RMK AO2 SLP173 60000 T10061006 10022 21006 53001 $
KVAY 111054Z AUTO 19003KT 7SM SCT110 M01/M01 A3004 RMK AO2 SLP172 T10061011 $
KVAY 110954Z AUTO 00000KT FEW080 OVC100 M01/M01 A3003 RMK AO2 SNE13 SLP170 P0000 T10061011 $
KVAY 110908Z AUTO 19003KT 4SM -SN BR BKN033 OVC070 M01/M01 A3003 RMK AO2 P0000 T10061011 $
KVAY 110854Z AUTO 24003KT -SN FEW006 OVC020 M01/M01 A3004 RMK AO2 SNB02 SLP172 P0000 60000 T10061006 53001 $
KVAY 110834Z AUTO 29005KT SN FEW007 OVC017 00/M01 A3005 RMK AO2 SNB02 P0000 T00001011 $
KVAY 110829Z AUTO 29007KT 1SM -SN BR FEW014 OVC021 00/M02 A3004 RMK AO2 SNB02 P0000 T00001017 $
KVAY 110823Z AUTO 32010KT 2 1/2SM -SN FEW016 SCT022 OVC028 01/M02 A3004 RMK AO2 SNB02 P0000 T00111017 $
KVAY 110754Z AUTO 27006KT 10SM FEW035 SCT041 OVC060 02/M03 A3003 RMK AO2 SLP169 T00221033 $
KVAY 110654Z AUTO VRB04KT 10SM BKN065 OVC085 01/M02 A3003 RMK AO2 SLP169 T00111022 $
KVAY 110554Z AUTO 22003KT 10SM OVC110 01/M03 A3004 RMK AO2 SLP171 T00111028 10011 20000 58005 $
KVAY 110454Z AUTO VRB03KT 10SM OVC110 01/M03 A3004 RMK AO2 SLP173 T00061033 400331028 $
KVAY 110354Z AUTO 22004KT 10SM FEW060 OVC100 01/M04 A3005 RMK AO2 SLP176 T00111039 $
KVAY 110254Z AUTO 22003KT 10SM FEW110 01/M04 A3005 RMK AO2 SLP177 T00061044 51005 $
KVAY 110154Z AUTO 00000KT 10SM FEW110 00/M04 A3004 RMK AO2 SLP174 T00001044 $
KVAY 110054Z AUTO 20004KT 10SM FEW110 01/M06 A3005 RMK AO2 SLP176 T00061056 $
KVAY 102354Z AUTO 21003KT 10SM CLR 01/M06 A3004 RMK AO2 SLP172 T00111056 10033 20006 52013 $
KVAY 102254Z AUTO 25006KT 10SM FEW050 02/M06 A3002 RMK AO2 SLP167 T00171056 $
KVAY 102154Z AUTO 24005KT 10SM OVC050 02/M06 A3001 RMK AO2 SLP163 T00221056 $
KVAY 102054Z AUTO 25008KT 10SM FEW049 03/M06 A3000 RMK AO2 SLP159 T00281061 53007 $
KVAY 101954Z AUTO 27010G15KT 10SM OVC048 03/M06 A2998 RMK AO2 SLP154 T00331056 $
KVAY 101854Z AUTO 27014G20KT SCT041 03/M05 A2998 RMK AO2 SLP151 T00331050 $
KVAY 101754Z AUTO 28012G19KT 10SM CLR 03/M06 A2998 RMK AO2 SLP151 T00281056 10033 21028 58002 $
KVAY 101654Z AUTO 25007KT 10SM CLR 03/M04 A2998 RMK AO2 SLP154 T00281044 $
KVAY 101554Z AUTO 26010KT 10SM CLR 02/M04 A2998 RMK AO2 SLP153 T00171044 $
KVAY 101454Z AUTO 25007KT 10SM CLR 01/M05 A2998 RMK AO2 SLP153 T00061050 51021 $
KVAY 101354Z AUTO 23003KT 9SM CLR M01/M04 A2997 RMK AO2 SLP148 T10111044 $
KVAY 101254Z AUTO 24005KT 9SM CLR M02/M06 A2995 RMK AO2 SLP142 T10221056 $
KVAY 101154Z AUTO 24004KT 9SM CLR M03/M06 A2992 RMK AO2 SLP132 70001 T10281056 11006 21028 53033 $
KVAY 101054Z AUTO 25004KT FEW120 M02/M05 A2988 RMK AO2 SLP119 T10221050 $